sensor_id;sensor_type;location;lat;lon;timestamp;pressure;altitude;pressure_sealevel;temperature;humidity
26823;BME280;14852;51.910;8.878;2023-11-19T00:00:45;99116.78;;;11.66;69.05
26823;BME280;14852;51.910;8.878;2023-11-19T00:03:11;99119.00;;;11.72;69.34
26823;BME280;14852;51.910;8.878;2023-11-19T00:05:39;99106.56;;;11.77;69.22
26823;BME280;14852;51.910;8.878;2023-11-19T00:08:05;99102.69;;;11.82;69.02
26823;BME280;14852;51.910;8.878;2023-11-19T00:10:32;99093.84;;;11.85;68.90
26823;BME280;14852;51.910;8.878;2023-11-19T00:12:57;99101.31;;;11.89;69.19
26823;BME280;14852;51.910;8.878;2023-11-19T00:15:23;99094.97;;;11.93;69.50
26823;BME280;14852;51.910;8.878;2023-11-19T00:17:49;99081.88;;;11.95;69.34
26823;BME280;14852;51.910;8.878;2023-11-19T00:20:20;99071.94;;;12.00;69.17
26823;BME280;14852;51.910;8.878;2023-11-19T00:22:47;99089.13;;;12.03;69.02
26823;BME280;14852;51.910;8.878;2023-11-19T00:25:17;99078.50;;;12.06;69.04
26823;BME280;14852;51.910;8.878;2023-11-19T00:27:43;99071.34;;;12.09;69.37
26823;BME280;14852;51.910;8.878;2023-11-19T00:30:13;99078.06;;;12.12;69.21
26823;BME280;14852;51.910;8.878;2023-11-19T00:32:40;99085.69;;;12.15;69.33
26823;BME280;14852;51.910;8.878;2023-11-19T00:35:07;99086.41;;;12.17;69.63
26823;BME280;14852;51.910;8.878;2023-11-19T00:37:33;99076.63;;;12.20;69.43
26823;BME280;14852;51.910;8.878;2023-11-19T00:39:59;99059.97;;;12.23;69.32
26823;BME280;14852;51.910;8.878;2023-11-19T00:42:25;99052.00;;;12.24;69.64
26823;BME280;14852;51.910;8.878;2023-11-19T00:44:51;99056.06;;;12.28;69.43
26823;BME280;14852;51.910;8.878;2023-11-19T00:47:17;99051.59;;;12.30;69.58
26823;BME280;14852;51.910;8.878;2023-11-19T00:49:47;99047.00;;;12.34;69.33
26823;BME280;14852;51.910;8.878;2023-11-19T00:52:15;99047.72;;;12.36;69.64
26823;BME280;14852;51.910;8.878;2023-11-19T00:54:41;99029.25;;;12.39;69.63
26823;BME280;14852;51.910;8.878;2023-11-19T00:57:07;99023.94;;;12.41;69.44
26823;BME280;14852;51.910;8.878;2023-11-19T00:59:33;99038.53;;;12.43;69.74
26823;BME280;14852;51.910;8.878;2023-11-19T01:01:59;99037.50;;;12.46;69.77
26823;BME280;14852;51.910;8.878;2023-11-19T01:04:33;99025.88;;;12.50;69.35
26823;BME280;14852;51.910;8.878;2023-11-19T01:06:59;99027.34;;;12.54;69.80
26823;BME280;14852;51.910;8.878;2023-11-19T01:09:25;99030.44;;;12.59;69.61
26823;BME280;14852;51.910;8.878;2023-11-19T01:11:53;99018.84;;;12.63;69.44
26823;BME280;14852;51.910;8.878;2023-11-19T01:14:19;99011.66;;;12.66;69.98
26823;BME280;14852;51.910;8.878;2023-11-19T01:16:46;99009.88;;;12.67;69.72
26823;BME280;14852;51.910;8.878;2023-11-19T01:19:12;99021.97;;;12.68;69.87
26823;BME280;14852;51.910;8.878;2023-11-19T01:21:37;99020.78;;;12.72;69.41
26823;BME280;14852;51.910;8.878;2023-11-19T01:24:04;99018.81;;;12.76;69.52
26823;BME280;14852;51.910;8.878;2023-11-19T01:26:31;99027.34;;;12.78;69.86
26823;BME280;14852;51.910;8.878;2023-11-19T01:28:57;99015.03;;;12.80;69.71
26823;BME280;14852;51.910;8.878;2023-11-19T01:31:23;99029.72;;;12.81;69.89
26823;BME280;14852;51.910;8.878;2023-11-19T01:33:49;99020.00;;;12.83;69.37
26823;BME280;14852;51.910;8.878;2023-11-19T01:36:15;99018.94;;;12.85;69.91
26823;BME280;14852;51.910;8.878;2023-11-19T01:38:41;99011.97;;;12.86;69.43
26823;BME280;14852;51.910;8.878;2023-11-19T01:41:07;99009.25;;;12.87;69.58
26823;BME280;14852;51.910;8.878;2023-11-19T01:43:37;99002.16;;;12.89;69.95
26823;BME280;14852;51.910;8.878;2023-11-19T01:46:05;99007.94;;;12.93;69.56
26823;BME280;14852;51.910;8.878;2023-11-19T01:48:34;99001.78;;;12.94;69.96
26823;BME280;14852;51.910;8.878;2023-11-19T01:51:01;98991.97;;;12.97;70.07
26823;BME280;14852;51.910;8.878;2023-11-19T01:53:28;98992.59;;;13.01;70.35
26823;BME280;14852;51.910;8.878;2023-11-19T01:55:55;98994.94;;;13.04;69.86
26823;BME280;14852;51.910;8.878;2023-11-19T01:58:23;99001.59;;;13.08;70.25
26823;BME280;14852;51.910;8.878;2023-11-19T02:00:48;98997.84;;;13.12;69.76
26823;BME280;14852;51.910;8.878;2023-11-19T02:03:15;98992.50;;;13.14;69.85
26823;BME280;14852;51.910;8.878;2023-11-19T02:05:42;98983.63;;;13.16;70.00
26823;BME280;14852;51.910;8.878;2023-11-19T02:08:08;98967.16;;;13.16;69.90
26823;BME280;14852;51.910;8.878;2023-11-19T02:10:34;98967.66;;;13.21;70.34
26823;BME280;14852;51.910;8.878;2023-11-19T02:13:01;98948.31;;;13.23;70.01
26823;BME280;14852;51.910;8.878;2023-11-19T02:15:26;98943.00;;;13.25;70.03
26823;BME280;14852;51.910;8.878;2023-11-19T02:17:52;98930.06;;;13.23;70.25
26823;BME280;14852;51.910;8.878;2023-11-19T02:20:18;98931.72;;;13.24;70.31
26823;BME280;14852;51.910;8.878;2023-11-19T02:22:49;98933.25;;;13.27;70.27
26823;BME280;14852;51.910;8.878;2023-11-19T02:25:36;98930.19;;;13.33;69.86
26823;BME280;14852;51.910;8.878;2023-11-19T02:28:03;98926.88;;;13.31;70.29
26823;BME280;14852;51.910;8.878;2023-11-19T02:30:30;98936.25;;;13.33;70.40
26823;BME280;14852;51.910;8.878;2023-11-19T02:32:58;98924.03;;;13.34;70.09
26823;BME280;14852;51.910;8.878;2023-11-19T02:35:26;98914.31;;;13.36;70.11
26823;BME280;14852;51.910;8.878;2023-11-19T02:37:52;98927.94;;;13.39;70.18
26823;BME280;14852;51.910;8.878;2023-11-19T02:40:18;98901.72;;;13.41;69.99
26823;BME280;14852;51.910;8.878;2023-11-19T02:42:44;98919.88;;;13.43;70.55
26823;BME280;14852;51.910;8.878;2023-11-19T02:45:10;98914.41;;;13.46;70.39
26823;BME280;14852;51.910;8.878;2023-11-19T02:47:43;98902.81;;;13.50;70.27
26823;BME280;14852;51.910;8.878;2023-11-19T02:50:11;98895.66;;;13.52;70.56
26823;BME280;14852;51.910;8.878;2023-11-19T02:52:49;98895.44;;;13.55;70.29
26823;BME280;14852;51.910;8.878;2023-11-19T02:55:16;98906.59;;;13.57;70.83
26823;BME280;14852;51.910;8.878;2023-11-19T02:57:43;98890.81;;;13.58;70.47
26823;BME280;14852;51.910;8.878;2023-11-19T03:00:16;98892.22;;;13.62;70.29
26823;BME280;14852;51.910;8.878;2023-11-19T03:02:43;98875.47;;;13.65;70.44
26823;BME280;14852;51.910;8.878;2023-11-19T03:05:15;98896.13;;;13.68;70.36
26823;BME280;14852;51.910;8.878;2023-11-19T03:07:43;98892.56;;;13.69;70.77
26823;BME280;14852;51.910;8.878;2023-11-19T03:10:10;98898.63;;;13.69;70.62
26823;BME280;14852;51.910;8.878;2023-11-19T03:12:40;98897.41;;;13.73;70.88
26823;BME280;14852;51.910;8.878;2023-11-19T03:15:07;98897.06;;;13.78;70.87
26823;BME280;14852;51.910;8.878;2023-11-19T03:17:38;98896.00;;;13.81;70.69
26823;BME280;14852;51.910;8.878;2023-11-19T03:20:11;98887.09;;;13.83;70.57
26823;BME280;14852;51.910;8.878;2023-11-19T03:22:41;98892.06;;;13.86;70.84
26823;BME280;14852;51.910;8.878;2023-11-19T03:25:08;98881.38;;;13.89;70.78
26823;BME280;14852;51.910;8.878;2023-11-19T03:27:38;98873.31;;;13.92;70.60
26823;BME280;14852;51.910;8.878;2023-11-19T03:30:10;98858.47;;;13.93;71.00
26823;BME280;14852;51.910;8.878;2023-11-19T03:32:36;98872.09;;;13.96;70.91
26823;BME280;14852;51.910;8.878;2023-11-19T03:35:03;98874.47;;;13.99;71.19
26823;BME280;14852;51.910;8.878;2023-11-19T03:37:35;98871.59;;;14.02;70.95
26823;BME280;14852;51.910;8.878;2023-11-19T03:40:02;98865.56;;;14.02;70.79
26823;BME280;14852;51.910;8.878;2023-11-19T03:42:28;98861.03;;;14.04;70.97
26823;BME280;14852;51.910;8.878;2023-11-19T03:44:55;98852.97;;;14.07;70.88
26823;BME280;14852;51.910;8.878;2023-11-19T03:47:21;98845.97;;;14.07;70.96
26823;BME280;14852;51.910;8.878;2023-11-19T03:49:49;98858.63;;;14.12;71.22
26823;BME280;14852;51.910;8.878;2023-11-19T03:52:16;98863.84;;;14.12;70.96
26823;BME280;14852;51.910;8.878;2023-11-19T03:54:43;98860.16;;;14.14;71.03
26823;BME280;14852;51.910;8.878;2023-11-19T03:57:08;98853.03;;;14.17;71.11
26823;BME280;14852;51.910;8.878;2023-11-19T03:59:36;98851.94;;;14.19;71.22
26823;BME280;14852;51.910;8.878;2023-11-19T04:02:02;98865.59;;;14.23;71.37
26823;BME280;14852;51.910;8.878;2023-11-19T04:04:28;98865.47;;;14.24;71.05
26823;BME280;14852;51.910;8.878;2023-11-19T04:06:57;98873.06;;;14.27;70.93
26823;BME280;14852;51.910;8.878;2023-11-19T04:09:23;98870.22;;;14.30;70.89
26823;BME280;14852;51.910;8.878;2023-11-19T04:11:49;98859.75;;;14.30;71.02
26823;BME280;14852;51.910;8.878;2023-11-19T04:14:15;98875.06;;;14.35;70.94
26823;BME280;14852;51.910;8.878;2023-11-19T04:16:44;98886.34;;;14.35;71.17
26823;BME280;14852;51.910;8.878;2023-11-19T04:19:11;98881.94;;;14.36;70.79
26823;BME280;14852;51.910;8.878;2023-11-19T04:21:37;98875.75;;;14.37;71.09
26823;BME280;14852;51.910;8.878;2023-11-19T04:24:05;98892.06;;;14.40;71.28
26823;BME280;14852;51.910;8.878;2023-11-19T04:26:31;98886.56;;;14.43;71.07
26823;BME280;14852;51.910;8.878;2023-11-19T04:28:57;98895.94;;;14.46;71.24
26823;BME280;14852;51.910;8.878;2023-11-19T04:31:29;98880.13;;;14.47;71.31
26823;BME280;14852;51.910;8.878;2023-11-19T04:33:57;98872.41;;;14.46;71.32
26823;BME280;14852;51.910;8.878;2023-11-19T04:36:22;98868.84;;;14.47;71.23
26823;BME280;14852;51.910;8.878;2023-11-19T04:38:50;98865.41;;;14.46;71.31
26823;BME280;14852;51.910;8.878;2023-11-19T04:41:16;98863.75;;;14.45;71.56
26823;BME280;14852;51.910;8.878;2023-11-19T04:43:42;98865.28;;;14.48;71.46
26823;BME280;14852;51.910;8.878;2023-11-19T04:46:09;98856.72;;;14.46;71.42
26823;BME280;14852;51.910;8.878;2023-11-19T04:48:35;98862.91;;;14.45;71.15
26823;BME280;14852;51.910;8.878;2023-11-19T04:51:01;98860.56;;;14.42;71.31
26823;BME280;14852;51.910;8.878;2023-11-19T04:53:30;98861.03;;;14.36;71.58
26823;BME280;14852;51.910;8.878;2023-11-19T04:55:55;98865.66;;;14.32;71.82
26823;BME280;14852;51.910;8.878;2023-11-19T04:58:21;98864.16;;;14.30;71.59
26823;BME280;14852;51.910;8.878;2023-11-19T05:00:47;98869.50;;;14.28;71.55
26823;BME280;14852;51.910;8.878;2023-11-19T05:03:13;98859.28;;;14.25;71.72
26823;BME280;14852;51.910;8.878;2023-11-19T05:05:41;98844.69;;;14.23;71.63
26823;BME280;14852;51.910;8.878;2023-11-19T05:08:07;98851.16;;;14.19;71.75
26823;BME280;14852;51.910;8.878;2023-11-19T05:10:33;98833.22;;;14.14;71.63
26823;BME280;14852;51.910;8.878;2023-11-19T05:12:58;98831.69;;;14.11;71.97
26823;BME280;14852;51.910;8.878;2023-11-19T05:15:24;98817.22;;;14.07;71.84
26823;BME280;14852;51.910;8.878;2023-11-19T05:17:50;98821.03;;;14.03;71.82
26823;BME280;14852;51.910;8.878;2023-11-19T05:20:16;98828.16;;;14.01;71.68
26823;BME280;14852;51.910;8.878;2023-11-19T05:22:42;98837.91;;;13.99;71.64
26823;BME280;14852;51.910;8.878;2023-11-19T05:25:09;98837.19;;;13.97;71.66
26823;BME280;14852;51.910;8.878;2023-11-19T05:27:36;98842.56;;;13.96;71.64
26823;BME280;14852;51.910;8.878;2023-11-19T05:30:05;98843.34;;;13.96;71.94
26823;BME280;14852;51.910;8.878;2023-11-19T05:32:33;98843.50;;;13.95;71.82
26823;BME280;14852;51.910;8.878;2023-11-19T05:34:59;98847.78;;;13.96;71.95
26823;BME280;14852;51.910;8.878;2023-11-19T05:37:25;98862.34;;;13.98;71.87
26823;BME280;14852;51.910;8.878;2023-11-19T05:39:51;98861.88;;;14.04;71.58
26823;BME280;14852;51.910;8.878;2023-11-19T05:42:18;98863.16;;;14.10;71.47
26823;BME280;14852;51.910;8.878;2023-11-19T05:44:43;98859.22;;;14.16;71.49
26823;BME280;14852;51.910;8.878;2023-11-19T05:47:09;98865.00;;;14.19;71.42
26823;BME280;14852;51.910;8.878;2023-11-19T05:49:35;98866.66;;;14.20;71.13
26823;BME280;14852;51.910;8.878;2023-11-19T05:52:01;98870.13;;;14.21;71.16
26823;BME280;14852;51.910;8.878;2023-11-19T05:54:29;98858.84;;;14.20;71.05
26823;BME280;14852;51.910;8.878;2023-11-19T05:56:54;98868.59;;;14.18;71.24
26823;BME280;14852;51.910;8.878;2023-11-19T05:59:20;98876.44;;;14.18;70.97
26823;BME280;14852;51.910;8.878;2023-11-19T06:01:48;98869.56;;;14.17;71.32
26823;BME280;14852;51.910;8.878;2023-11-19T06:04:14;98875.22;;;14.22;71.19
26823;BME280;14852;51.910;8.878;2023-11-19T06:06:40;98877.72;;;14.24;71.05
26823;BME280;14852;51.910;8.878;2023-11-19T06:09:06;98866.53;;;14.22;71.20
26823;BME280;14852;51.910;8.878;2023-11-19T06:11:35;98872.59;;;14.22;71.24
26823;BME280;14852;51.910;8.878;2023-11-19T06:14:02;98880.84;;;14.18;70.87
26823;BME280;14852;51.910;8.878;2023-11-19T06:16:28;98884.13;;;14.20;71.15
26823;BME280;14852;51.910;8.878;2023-11-19T06:18:55;98865.72;;;14.21;70.76
26823;BME280;14852;51.910;8.878;2023-11-19T06:21:21;98878.91;;;14.20;71.04
26823;BME280;14852;51.910;8.878;2023-11-19T06:23:47;98871.22;;;14.18;70.89
26823;BME280;14852;51.910;8.878;2023-11-19T06:26:13;98866.09;;;14.17;70.75
26823;BME280;14852;51.910;8.878;2023-11-19T06:28:39;98868.13;;;14.13;70.92
26823;BME280;14852;51.910;8.878;2023-11-19T06:31:05;98877.31;;;14.07;71.12
26823;BME280;14852;51.910;8.878;2023-11-19T06:33:31;98876.13;;;14.00;70.92
26823;BME280;14852;51.910;8.878;2023-11-19T06:35:57;98889.56;;;13.96;70.94
26823;BME280;14852;51.910;8.878;2023-11-19T06:38:23;98889.91;;;13.91;70.88
26823;BME280;14852;51.910;8.878;2023-11-19T06:40:49;98891.22;;;13.86;70.97
26823;BME280;14852;51.910;8.878;2023-11-19T06:43:14;98890.53;;;13.84;71.15
26823;BME280;14852;51.910;8.878;2023-11-19T06:45:41;98884.59;;;13.82;70.89
26823;BME280;14852;51.910;8.878;2023-11-19T06:48:06;98887.47;;;13.78;70.62
26823;BME280;14852;51.910;8.878;2023-11-19T06:50:33;98884.84;;;13.78;70.60
26823;BME280;14852;51.910;8.878;2023-11-19T06:52:59;98899.22;;;13.84;70.47
26823;BME280;14852;51.910;8.878;2023-11-19T06:55:26;98894.31;;;13.91;70.16
26823;BME280;14852;51.910;8.878;2023-11-19T06:57:52;98898.19;;;13.96;69.78
26823;BME280;14852;51.910;8.878;2023-11-19T07:00:18;98898.81;;;14.00;69.93
26823;BME280;14852;51.910;8.878;2023-11-19T07:02:44;98890.84;;;14.01;69.66
26823;BME280;14852;51.910;8.878;2023-11-19T07:05:10;98898.56;;;14.03;69.45
26823;BME280;14852;51.910;8.878;2023-11-19T07:07:38;98911.38;;;14.06;69.44
26823;BME280;14852;51.910;8.878;2023-11-19T07:10:06;98920.88;;;14.07;69.17
26823;BME280;14852;51.910;8.878;2023-11-19T07:12:34;98904.22;;;14.08;69.01
26823;BME280;14852;51.910;8.878;2023-11-19T07:15:02;98919.09;;;14.07;69.09
26823;BME280;14852;51.910;8.878;2023-11-19T07:17:30;98923.34;;;14.08;68.89
26823;BME280;14852;51.910;8.878;2023-11-19T07:19:56;98925.41;;;14.05;68.69
26823;BME280;14852;51.910;8.878;2023-11-19T07:22:25;98930.03;;;14.01;69.08
26823;BME280;14852;51.910;8.878;2023-11-19T07:24:51;98929.44;;;13.98;68.73
26823;BME280;14852;51.910;8.878;2023-11-19T07:27:19;98927.19;;;13.93;68.98
26823;BME280;14852;51.910;8.878;2023-11-19T07:29:44;98937.16;;;13.88;68.67
26823;BME280;14852;51.910;8.878;2023-11-19T07:32:11;98938.00;;;13.89;68.54
26823;BME280;14852;51.910;8.878;2023-11-19T07:34:37;98928.25;;;13.91;68.66
26823;BME280;14852;51.910;8.878;2023-11-19T07:37:03;98931.22;;;13.97;68.41
26823;BME280;14852;51.910;8.878;2023-11-19T07:39:30;98937.00;;;14.12;68.08
26823;BME280;14852;51.910;8.878;2023-11-19T07:41:56;98933.28;;;14.26;67.35
26823;BME280;14852;51.910;8.878;2023-11-19T07:44:21;98932.53;;;14.46;67.17
26823;BME280;14852;51.910;8.878;2023-11-19T07:46:47;98923.31;;;14.63;66.41
26823;BME280;14852;51.910;8.878;2023-11-19T07:49:14;98939.66;;;14.76;66.54
26823;BME280;14852;51.910;8.878;2023-11-19T07:51:39;98937.59;;;14.79;66.45
26823;BME280;14852;51.910;8.878;2023-11-19T07:54:06;98940.09;;;14.81;66.13
26823;BME280;14852;51.910;8.878;2023-11-19T07:56:33;98944.91;;;14.76;66.17
26823;BME280;14852;51.910;8.878;2023-11-19T07:59:02;98951.81;;;14.66;66.50
26823;BME280;14852;51.910;8.878;2023-11-19T08:01:28;98944.59;;;14.58;66.79
26823;BME280;14852;51.910;8.878;2023-11-19T08:03:54;98940.72;;;14.53;66.93
26823;BME280;14852;51.910;8.878;2023-11-19T08:06:20;98949.88;;;14.47;66.96
26823;BME280;14852;51.910;8.878;2023-11-19T08:08:47;98947.50;;;14.44;66.91
26823;BME280;14852;51.910;8.878;2023-11-19T08:11:14;98942.41;;;14.42;66.75
26823;BME280;14852;51.910;8.878;2023-11-19T08:13:40;98968.53;;;14.42;66.76
26823;BME280;14852;51.910;8.878;2023-11-19T08:16:07;98963.47;;;14.41;67.13
26823;BME280;14852;51.910;8.878;2023-11-19T08:18:32;98964.13;;;14.43;67.03
26823;BME280;14852;51.910;8.878;2023-11-19T08:20:58;98958.22;;;14.41;66.96
26823;BME280;14852;51.910;8.878;2023-11-19T08:23:26;98957.28;;;14.42;67.14
26823;BME280;14852;51.910;8.878;2023-11-19T08:25:54;98975.31;;;14.45;66.48
26823;BME280;14852;51.910;8.878;2023-11-19T08:28:20;98972.34;;;14.49;66.71
26823;BME280;14852;51.910;8.878;2023-11-19T08:30:46;98973.03;;;14.52;66.73
26823;BME280;14852;51.910;8.878;2023-11-19T08:33:11;98971.94;;;14.54;66.79
26823;BME280;14852;51.910;8.878;2023-11-19T08:35:37;98968.84;;;14.60;66.60
26823;BME280;14852;51.910;8.878;2023-11-19T08:38:03;98971.41;;;14.71;66.31
26823;BME280;14852;51.910;8.878;2023-11-19T08:40:29;98979.09;;;14.84;66.08
26823;BME280;14852;51.910;8.878;2023-11-19T08:42:56;98990.19;;;14.97;65.94
26823;BME280;14852;51.910;8.878;2023-11-19T08:45:22;98981.91;;;15.13;65.27
26823;BME280;14852;51.910;8.878;2023-11-19T08:47:48;98988.00;;;15.23;65.14
26823;BME280;14852;51.910;8.878;2023-11-19T08:50:16;98971.34;;;15.24;65.09
26823;BME280;14852;51.910;8.878;2023-11-19T08:52:42;98989.13;;;15.20;64.97
26823;BME280;14852;51.910;8.878;2023-11-19T08:55:07;98985.41;;;15.02;65.18
26823;BME280;14852;51.910;8.878;2023-11-19T08:57:35;98985.75;;;14.88;65.31
26823;BME280;14852;51.910;8.878;2023-11-19T09:00:01;98968.75;;;14.82;65.87
26823;BME280;14852;51.910;8.878;2023-11-19T09:02:28;98965.53;;;14.79;65.41
26823;BME280;14852;51.910;8.878;2023-11-19T09:04:54;98977.09;;;14.76;65.42
26823;BME280;14852;51.910;8.878;2023-11-19T09:07:20;98981.34;;;14.77;65.18
26823;BME280;14852;51.910;8.878;2023-11-19T09:09:46;98987.28;;;14.79;65.09
26823;BME280;14852;51.910;8.878;2023-11-19T09:12:12;98998.72;;;14.78;65.07
26823;BME280;14852;51.910;8.878;2023-11-19T09:14:39;99001.91;;;14.82;65.27
26823;BME280;14852;51.910;8.878;2023-11-19T09:17:05;98997.63;;;14.81;65.18
26823;BME280;14852;51.910;8.878;2023-11-19T09:19:32;98997.19;;;14.76;65.08
26823;BME280;14852;51.910;8.878;2023-11-19T09:21:58;98992.81;;;14.65;65.26
26823;BME280;14852;51.910;8.878;2023-11-19T09:24:24;98994.28;;;14.58;65.48
26823;BME280;14852;51.910;8.878;2023-11-19T09:26:50;98998.56;;;14.59;66.10
26823;BME280;14852;51.910;8.878;2023-11-19T09:29:15;98992.38;;;14.60;65.80
26823;BME280;14852;51.910;8.878;2023-11-19T09:31:42;99000.53;;;14.67;65.60
26823;BME280;14852;51.910;8.878;2023-11-19T09:34:07;99011.72;;;14.69;65.35
26823;BME280;14852;51.910;8.878;2023-11-19T09:36:33;99012.66;;;14.68;65.36
26823;BME280;14852;51.910;8.878;2023-11-19T09:38:59;99011.81;;;14.67;65.40
26823;BME280;14852;51.910;8.878;2023-11-19T09:41:29;99015.88;;;14.71;65.57
26823;BME280;14852;51.910;8.878;2023-11-19T09:43:55;99011.78;;;14.78;65.48
26823;BME280;14852;51.910;8.878;2023-11-19T09:46:21;99008.94;;;14.81;65.33
26823;BME280;14852;51.910;8.878;2023-11-19T09:48:53;99014.63;;;14.87;65.54
26823;BME280;14852;51.910;8.878;2023-11-19T09:51:20;99016.72;;;14.93;65.04
26823;BME280;14852;51.910;8.878;2023-11-19T09:53:46;99023.31;;;15.08;64.68
26823;BME280;14852;51.910;8.878;2023-11-19T09:56:12;99017.25;;;15.07;64.61
26823;BME280;14852;51.910;8.878;2023-11-19T09:58:38;99002.63;;;15.05;64.89
26823;BME280;14852;51.910;8.878;2023-11-19T10:01:05;99009.34;;;14.98;64.91
26823;BME280;14852;51.910;8.878;2023-11-19T10:03:36;99012.22;;;14.95;64.90
26823;BME280;14852;51.910;8.878;2023-11-19T10:06:08;99007.22;;;14.92;64.77
26823;BME280;14852;51.910;8.878;2023-11-19T10:08:38;99013.16;;;14.94;65.30
26823;BME280;14852;51.910;8.878;2023-11-19T10:11:08;99004.94;;;14.98;64.79
26823;BME280;14852;51.910;8.878;2023-11-19T10:13:37;99012.16;;;15.06;64.90
26823;BME280;14852;51.910;8.878;2023-11-19T10:16:09;98999.97;;;15.16;64.50
26823;BME280;14852;51.910;8.878;2023-11-19T10:18:37;99002.34;;;15.19;63.90
26823;BME280;14852;51.910;8.878;2023-11-19T10:21:07;98994.03;;;15.14;64.40
26823;BME280;14852;51.910;8.878;2023-11-19T10:24:06;98986.50;;;15.41;64.53
26823;BME280;14852;51.910;8.878;2023-11-19T10:26:31;98984.56;;;15.64;63.66
26823;BME280;14852;51.910;8.878;2023-11-19T10:28:59;98972.38;;;15.84;63.71
26823;BME280;14852;51.910;8.878;2023-11-19T10:31:26;98986.06;;;16.47;62.87
26823;BME280;14852;51.910;8.878;2023-11-19T10:33:53;98978.38;;;16.93;62.34
26823;BME280;14852;51.910;8.878;2023-11-19T10:36:19;98966.28;;;17.39;61.46
26823;BME280;14852;51.910;8.878;2023-11-19T10:38:56;98969.00;;;17.47;61.21
26823;BME280;14852;51.910;8.878;2023-11-19T10:41:32;98970.31;;;17.24;61.13
26823;BME280;14852;51.910;8.878;2023-11-19T10:44:01;98976.28;;;16.87;61.81
26823;BME280;14852;51.910;8.878;2023-11-19T10:46:42;98980.84;;;16.66;62.16
26823;BME280;14852;51.910;8.878;2023-11-19T10:49:09;98978.19;;;16.47;62.40
26823;BME280;14852;51.910;8.878;2023-11-19T10:51:36;98975.25;;;16.30;62.66
26823;BME280;14852;51.910;8.878;2023-11-19T10:54:07;98971.22;;;16.17;63.05
26823;BME280;14852;51.910;8.878;2023-11-19T10:56:34;98966.38;;;16.03;62.96
26823;BME280;14852;51.910;8.878;2023-11-19T10:59:01;98956.13;;;15.90;62.97
26823;BME280;14852;51.910;8.878;2023-11-19T11:01:41;98972.22;;;15.76;63.09
26823;BME280;14852;51.910;8.878;2023-11-19T11:04:14;98966.28;;;15.74;62.53
26823;BME280;14852;51.910;8.878;2023-11-19T11:06:43;98952.59;;;15.70;62.56
26823;BME280;14852;51.910;8.878;2023-11-19T11:09:10;98960.72;;;15.57;62.58
26823;BME280;14852;51.910;8.878;2023-11-19T11:11:40;98964.06;;;15.48;62.73
26823;BME280;14852;51.910;8.878;2023-11-19T11:14:07;98958.06;;;15.37;62.85
26823;BME280;14852;51.910;8.878;2023-11-19T11:16:34;98953.75;;;15.26;62.82
26823;BME280;14852;51.910;8.878;2023-11-19T11:19:02;98941.50;;;15.27;62.89
26823;BME280;14852;51.910;8.878;2023-11-19T11:21:28;98937.25;;;15.35;62.84
26823;BME280;14852;51.910;8.878;2023-11-19T11:27:42;98932.69;;;15.28;62.83
26823;BME280;14852;51.910;8.878;2023-11-19T11:30:23;98936.50;;;15.23;62.47
26823;BME280;14852;51.910;8.878;2023-11-19T11:36:42;98933.63;;;15.27;62.26
26823;BME280;14852;51.910;8.878;2023-11-19T11:39:11;98934.47;;;15.27;61.75
26823;BME280;14852;51.910;8.878;2023-11-19T11:41:38;98937.78;;;15.29;61.99
26823;BME280;14852;51.910;8.878;2023-11-19T11:44:04;98951.34;;;15.34;62.01
26823;BME280;14852;51.910;8.878;2023-11-19T11:49:07;98938.38;;;15.33;61.67
26823;BME280;14852;51.910;8.878;2023-11-19T11:57:08;98944.84;;;15.38;61.90
26823;BME280;14852;51.910;8.878;2023-11-19T11:59:47;98942.00;;;15.41;61.91
26823;BME280;14852;51.910;8.878;2023-11-19T12:02:22;98934.13;;;15.41;61.42
26823;BME280;14852;51.910;8.878;2023-11-19T12:04:50;98952.59;;;15.40;61.66
26823;BME280;14852;51.910;8.878;2023-11-19T12:09:51;98946.53;;;15.39;61.54
26823;BME280;14852;51.910;8.878;2023-11-19T12:12:26;98957.94;;;15.38;61.74
26823;BME280;14852;51.910;8.878;2023-11-19T12:20:04;98949.91;;;15.30;62.07
26823;BME280;14852;51.910;8.878;2023-11-19T12:22:32;98947.88;;;15.34;61.98
26823;BME280;14852;51.910;8.878;2023-11-19T12:24:58;98933.38;;;15.30;62.17
26823;BME280;14852;51.910;8.878;2023-11-19T12:27:24;98945.41;;;15.32;62.23
26823;BME280;14852;51.910;8.878;2023-11-19T12:29:50;98930.53;;;15.33;62.41
26823;BME280;14852;51.910;8.878;2023-11-19T12:32:16;98946.09;;;15.34;62.33
26823;BME280;14852;51.910;8.878;2023-11-19T12:34:42;98929.41;;;15.35;61.79
26823;BME280;14852;51.910;8.878;2023-11-19T12:37:08;98935.88;;;15.31;61.90
26823;BME280;14852;51.910;8.878;2023-11-19T12:39:35;98919.59;;;15.28;61.70
26823;BME280;14852;51.910;8.878;2023-11-19T12:42:01;98931.84;;;15.27;61.73
26823;BME280;14852;51.910;8.878;2023-11-19T12:44:27;98924.72;;;15.29;62.02
26823;BME280;14852;51.910;8.878;2023-11-19T12:47:06;98925.28;;;15.33;61.71
26823;BME280;14852;51.910;8.878;2023-11-19T12:49:33;98921.84;;;15.32;61.86
26823;BME280;14852;51.910;8.878;2023-11-19T12:51:59;98923.34;;;15.35;62.06
26823;BME280;14852;51.910;8.878;2023-11-19T12:54:35;98915.56;;;15.44;61.83
26823;BME280;14852;51.910;8.878;2023-11-19T12:57:02;98907.56;;;15.46;61.82
26823;BME280;14852;51.910;8.878;2023-11-19T12:59:28;98917.88;;;15.47;61.74
26823;BME280;14852;51.910;8.878;2023-11-19T13:01:58;98909.78;;;15.50;61.52
26823;BME280;14852;51.910;8.878;2023-11-19T13:04:30;98900.75;;;15.54;61.62
26823;BME280;14852;51.910;8.878;2023-11-19T13:07:01;98902.06;;;15.49;61.39
26823;BME280;14852;51.910;8.878;2023-11-19T13:09:29;98914.59;;;15.45;61.61
26823;BME280;14852;51.910;8.878;2023-11-19T13:11:56;98914.41;;;15.37;61.93
26823;BME280;14852;51.910;8.878;2023-11-19T13:14:23;98920.19;;;15.31;62.06
26823;BME280;14852;51.910;8.878;2023-11-19T13:16:49;98926.03;;;15.23;62.04
26823;BME280;14852;51.910;8.878;2023-11-19T13:19:18;98923.81;;;15.19;62.53
26823;BME280;14852;51.910;8.878;2023-11-19T13:21:45;98914.97;;;15.10;62.56
26823;BME280;14852;51.910;8.878;2023-11-19T13:24:13;98924.03;;;15.06;62.59